Coleville, California
Current Conditions -  °F | °C
As of 9:52 AM on Thursday 27 Nov 2014 (Local Time) from KBAN Reporting Station
Clear Clear  
Wind Chill: 53°   Ceiling: Unl
Heat Index: 53°   Visibility: NA
Dew Point: 23°   Wind: 0mph
Humidity: 31%   Direction: NA
Pressure: 30.34"   Gusts: NA
Location:  38.57°N, 119.51°W
Report Text: KBAN 271752Z AUTO 00000KT CLR 12/M05 A3034 RMK AO2 SLP245 T01171050 10117 21033 58008 $
Loading
Personal Weather Stations






























Interactive Weather Map New forecast layout! Learn more

10-Day Weather Forecast

Advertisements
Track Severe Weather on mobile